createdAt,value
2022-08-22T00:00:55.118Z,95.30
2022-08-22T00:03:07.258Z,91.20
2022-08-22T00:03:15.538Z,94.20
2022-08-22T00:03:18.594Z,95.50
2022-08-22T00:05:33.080Z,95.30
2022-08-22T00:07:46.755Z,95.70
2022-08-22T00:10:00.301Z,95.90
2022-08-22T00:12:19.983Z,96.10
2022-08-22T00:14:33.860Z,95.80
2022-08-22T00:16:44.252Z,95.60
2022-08-22T00:18:55.749Z,95.60
2022-08-22T00:21:09.861Z,95.70
2022-08-22T00:23:19.510Z,96.50
2022-08-22T00:25:44.487Z,96.80
2022-08-22T00:27:55.625Z,97.00
2022-08-22T00:30:08.943Z,96.90
2022-08-22T00:32:20.178Z,97.00
2022-08-22T00:34:35.812Z,97.20
2022-08-22T00:36:47.855Z,97.90
2022-08-22T00:39:01.905Z,98.40
2022-08-22T00:41:15.261Z,98.80
2022-08-22T00:43:55.518Z,98.90
2022-08-22T00:46:18.158Z,99.70
2022-08-22T00:48:51.045Z,99.90
2022-08-22T00:51:21.565Z,99.80
2022-08-22T00:53:52.045Z,99.60
2022-08-22T00:56:04.043Z,99.50
2022-08-22T00:58:40.488Z,99.10
2022-08-22T01:00:48.237Z,99.00
2022-08-22T01:03:27.408Z,98.80
2022-08-22T01:05:46.090Z,99.10
2022-08-22T01:08:13.008Z,99.40
2022-08-22T01:10:33.620Z,99.50
2022-08-22T01:12:54.819Z,99.60
2022-08-22T01:15:02.941Z,99.50
2022-08-22T01:17:35.101Z,99.20
2022-08-22T01:20:11.530Z,99.00
2022-08-22T01:22:58.173Z,99.00
2022-08-22T01:25:42.364Z,99.20
2022-08-22T01:28:29.399Z,98.70
2022-08-22T01:31:07.800Z,98.60
2022-08-22T01:33:43.885Z,98.50
2022-08-22T01:36:25.187Z,98.30
2022-08-22T01:38:57.668Z,98.60
2022-08-22T01:41:27.863Z,98.10
2022-08-22T01:43:59.273Z,98.10
2022-08-22T01:46:28.748Z,97.90
2022-08-22T01:48:38.687Z,98.00
2022-08-22T01:50:48.327Z,98.00
2022-08-22T01:53:04.330Z,98.10
2022-08-22T01:55:13.229Z,98.20
2022-08-22T01:57:19.561Z,98.10
2022-08-22T01:59:33.734Z,97.70
2022-08-22T02:01:53.897Z,97.90
2022-08-22T02:04:04.820Z,97.90
2022-08-22T02:06:14.801Z,97.80
2022-08-22T02:08:27.423Z,98.00
2022-08-22T02:10:50.632Z,98.00
2022-08-22T02:13:05.343Z,98.10
2022-08-22T02:15:48.289Z,98.20
2022-08-22T02:18:04.550Z,98.10
2022-08-22T02:20:20.466Z,98.00
2022-08-22T02:22:35.056Z,98.00
2022-08-22T02:24:52.929Z,98.00
2022-08-22T02:27:17.736Z,98.00
2022-08-22T02:29:33.401Z,98.00
2022-08-22T02:31:45.601Z,98.20
2022-08-22T02:33:54.447Z,98.30
2022-08-22T02:36:04.333Z,98.60
2022-08-22T02:38:24.850Z,98.70
2022-08-22T02:40:38.946Z,98.80
2022-08-22T02:42:50.042Z,98.80
2022-08-22T02:45:05.788Z,98.50
2022-08-22T02:47:13.572Z,98.60
2022-08-22T02:49:27.367Z,98.60
2022-08-22T02:51:41.609Z,98.50
2022-08-22T02:53:56.174Z,99.00
2022-08-22T02:56:07.618Z,98.80
2022-08-22T02:58:26.450Z,99.10
2022-08-22T03:00:42.313Z,98.80
2022-08-22T03:03:04.791Z,98.40
2022-08-22T03:05:23.283Z,98.60
2022-08-22T03:07:36.509Z,98.90
2022-08-22T03:09:47.552Z,98.60
2022-08-22T03:12:06.272Z,98.30
2022-08-22T03:14:19.409Z,98.70
2022-08-22T03:16:31.350Z,98.50
2022-08-22T03:18:46.770Z,98.40
2022-08-22T03:20:55.692Z,98.20
2022-08-22T03:23:06.658Z,98.30
2022-08-22T03:25:23.037Z,98.50
2022-08-22T03:27:34.685Z,98.50
2022-08-22T03:29:44.210Z,98.50
2022-08-22T03:32:08.596Z,98.40
2022-08-22T03:34:22.653Z,98.30
2022-08-22T03:36:31.512Z,98.40
2022-08-22T03:39:16.481Z,98.30
2022-08-22T03:41:52.324Z,98.10
2022-08-22T03:44:18.460Z,98.00
2022-08-22T03:47:10.951Z,98.30
2022-08-22T03:49:47.244Z,98.50
2022-08-22T03:52:12.370Z,98.60
2022-08-22T03:54:54.136Z,99.30
2022-08-22T03:57:46.064Z,99.80
2022-08-22T04:00:22.692Z,99.90
2022-08-22T04:02:58.877Z,99.90
2022-08-22T04:05:42.238Z,99.90
2022-08-22T04:08:13.783Z,99.90
2022-08-22T04:10:39.563Z,99.90
2022-08-22T04:13:09.547Z,99.90
2022-08-22T04:15:49.021Z,99.90
2022-08-22T04:18:19.693Z,99.90
2022-08-22T04:21:06.241Z,99.90
2022-08-22T04:23:36.715Z,99.90
2022-08-22T04:25:48.843Z,99.90
2022-08-22T04:27:59.193Z,99.90
2022-08-22T04:30:08.654Z,99.90
2022-08-22T04:32:18.643Z,99.90
2022-08-22T04:34:30.759Z,99.90
2022-08-22T04:36:41.908Z,99.90
2022-08-22T04:38:51.655Z,99.90
2022-08-22T04:41:04.940Z,99.60
2022-08-22T04:43:15.917Z,99.70
2022-08-22T04:45:25.257Z,99.50
2022-08-22T04:47:35.272Z,99.20
2022-08-22T04:49:43.840Z,99.10
2022-08-22T04:51:53.672Z,99.00
2022-08-22T04:54:05.736Z,98.70
2022-08-22T04:56:22.451Z,98.90
2022-08-22T04:58:37.328Z,98.90
2022-08-22T05:00:58.717Z,99.10
2022-08-22T05:03:04.483Z,98.90
2022-08-22T05:05:16.663Z,99.00
2022-08-22T05:07:24.229Z,98.50
2022-08-22T05:09:32.835Z,98.20
2022-08-22T05:11:38.915Z,98.00
2022-08-22T05:13:47.644Z,98.10
2022-08-22T05:15:56.972Z,97.40
2022-08-22T05:18:07.781Z,97.50
2022-08-22T05:20:19.895Z,97.70
2022-08-22T05:22:29.925Z,97.80
2022-08-22T05:24:40.085Z,97.80
2022-08-22T05:26:49.317Z,97.90
2022-08-22T05:28:58.797Z,97.60
2022-08-22T05:31:09.410Z,97.40
2022-08-22T05:33:16.461Z,98.00
2022-08-22T05:35:29.699Z,98.00
2022-08-22T05:37:40.839Z,97.60
2022-08-22T05:39:48.752Z,97.60
2022-08-22T05:41:57.123Z,97.50
2022-08-22T05:44:03.178Z,97.90
2022-08-22T05:46:18.271Z,97.60
2022-08-22T05:48:28.123Z,97.40
2022-08-22T05:50:40.130Z,97.70
2022-08-22T05:52:56.839Z,97.70
2022-08-22T05:55:08.772Z,97.80
2022-08-22T05:57:22.449Z,97.70
2022-08-22T05:59:31.170Z,97.80
2022-08-22T06:01:40.440Z,98.10
2022-08-22T06:03:56.674Z,97.90
2022-08-22T06:06:11.864Z,97.90
2022-08-22T06:08:23.460Z,97.60
2022-08-22T06:10:32.442Z,97.70
2022-08-22T06:12:40.152Z,98.10
2022-08-22T06:14:55.853Z,98.00
2022-08-22T06:17:06.617Z,98.30
2022-08-22T06:19:19.656Z,98.10
2022-08-22T06:21:38.544Z,98.40
2022-08-22T06:23:46.941Z,98.50
2022-08-22T06:25:53.723Z,98.30
2022-08-22T06:28:02.858Z,98.00
2022-08-22T06:30:09.807Z,97.90
2022-08-22T06:32:44.538Z,97.70
2022-08-22T06:34:47.769Z,97.60
2022-08-22T06:36:55.644Z,97.90
2022-08-22T06:39:17.060Z,97.90
2022-08-22T06:41:23.356Z,97.90
2022-08-22T06:43:38.094Z,97.30
2022-08-22T06:45:43.458Z,97.60
2022-08-22T06:47:53.546Z,97.20
2022-08-22T06:50:02.156Z,96.70
2022-08-22T06:52:19.497Z,97.60
2022-08-22T06:54:32.509Z,97.80
2022-08-22T06:56:42.851Z,97.70
2022-08-22T06:58:50.061Z,97.20
2022-08-22T07:01:05.135Z,97.10
2022-08-22T07:03:24.637Z,97.10
2022-08-22T07:05:37.250Z,96.80
2022-08-22T07:07:43.310Z,97.20
2022-08-22T07:09:55.454Z,97.20
2022-08-22T07:12:03.799Z,97.20
2022-08-22T07:14:11.687Z,97.60
2022-08-22T07:16:18.364Z,97.30
2022-08-22T07:18:28.162Z,97.50
2022-08-22T07:20:36.184Z,97.80
2022-08-22T07:22:40.557Z,97.70
2022-08-22T07:24:51.742Z,98.70
2022-08-22T07:27:12.696Z,99.10
2022-08-22T07:29:35.051Z,98.90
2022-08-22T07:31:41.274Z,98.50
2022-08-22T07:33:49.174Z,98.20
2022-08-22T07:36:00.298Z,97.80
2022-08-22T07:38:31.242Z,98.10
2022-08-22T07:40:55.762Z,97.60
2022-08-22T07:43:05.954Z,97.50
2022-08-22T07:45:14.214Z,97.10
2022-08-22T07:47:26.481Z,96.50
2022-08-22T07:49:41.320Z,96.00
2022-08-22T07:51:56.719Z,95.90
2022-08-22T07:54:08.644Z,95.90
2022-08-22T07:56:20.463Z,96.30
2022-08-22T07:58:29.091Z,95.90
2022-08-22T08:00:34.579Z,95.80
2022-08-22T08:02:52.507Z,95.70
2022-08-22T08:05:15.885Z,95.80
2022-08-22T08:07:33.115Z,95.10
2022-08-22T08:09:43.904Z,94.70
2022-08-22T08:12:08.305Z,94.40
2022-08-22T08:14:56.952Z,94.30
2022-08-22T08:17:27.777Z,94.60
2022-08-22T08:19:40.706Z,93.80
2022-08-22T08:21:57.659Z,93.40
2022-08-22T08:24:22.666Z,92.70
2022-08-22T08:27:13.169Z,91.60
2022-08-22T08:29:31.461Z,90.80
2022-08-22T08:31:44.712Z,89.40
2022-08-22T08:33:52.074Z,88.70
2022-08-22T08:36:06.379Z,87.90
2022-08-22T08:38:18.023Z,88.50
2022-08-22T08:40:50.894Z,88.60
2022-08-22T08:43:26.625Z,87.70
2022-08-22T08:45:59.088Z,86.50
2022-08-22T08:48:36.326Z,87.10
2022-08-22T08:51:27.488Z,87.70
2022-08-22T08:54:26.929Z,88.40
2022-08-22T08:56:54.490Z,90.20
2022-08-22T08:59:27.156Z,89.20
2022-08-22T09:02:23.662Z,88.90
2022-08-22T09:05:36.518Z,89.40
2022-08-22T09:08:25.402Z,89.60
2022-08-22T09:11:16.788Z,90.20
2022-08-22T09:14:04.210Z,91.20
2022-08-22T09:16:45.035Z,91.50
2022-08-22T09:19:33.430Z,90.90
2022-08-22T09:22:03.083Z,90.00
2022-08-22T09:24:44.607Z,88.50
2022-08-22T09:27:08.497Z,86.00
2022-08-22T09:29:32.688Z,85.10
2022-08-22T09:31:58.303Z,84.00
2022-08-22T09:34:13.017Z,83.10
2022-08-22T09:36:26.323Z,83.30
2022-08-22T09:38:37.765Z,82.40
2022-08-22T09:40:51.073Z,83.80
2022-08-22T09:43:11.281Z,84.10
2022-08-22T09:45:47.962Z,84.10
2022-08-22T09:48:07.000Z,84.60
2022-08-22T09:50:20.443Z,84.90
2022-08-22T09:53:06.226Z,85.40
2022-08-22T09:55:47.865Z,84.90
2022-08-22T09:58:41.716Z,84.70
2022-08-22T10:01:16.815Z,84.40
2022-08-22T10:03:29.273Z,86.00
2022-08-22T10:06:24.666Z,86.70
2022-08-22T10:09:05.942Z,87.20
2022-08-22T10:11:26.253Z,88.80
2022-08-22T10:14:01.149Z,89.60
2022-08-22T10:16:24.058Z,89.20
2022-08-22T10:18:43.964Z,88.40
2022-08-22T10:21:12.892Z,87.30
2022-08-22T10:23:31.332Z,86.20
2022-08-22T10:25:53.166Z,85.90
2022-08-22T10:28:28.445Z,84.40
2022-08-22T10:31:00.750Z,82.90
2022-08-22T10:33:21.251Z,82.00
2022-08-22T10:35:50.003Z,80.70
2022-08-22T10:38:14.786Z,79.80
2022-08-22T10:40:40.638Z,79.80
2022-08-22T10:43:01.034Z,78.80
2022-08-22T10:45:36.862Z,78.10
2022-08-22T10:48:32.923Z,77.90
2022-08-22T10:50:47.050Z,77.60
2022-08-22T10:53:29.037Z,77.90
2022-08-22T10:55:43.635Z,79.60
2022-08-22T10:58:06.727Z,80.60
2022-08-22T11:00:23.185Z,82.50
2022-08-22T11:03:04.554Z,82.20
2022-08-22T11:05:56.851Z,82.40
2022-08-22T11:11:53.332Z,80.90
2022-08-22T11:14:32.998Z,80.40
2022-08-22T11:16:55.253Z,80.50
2022-08-22T11:19:27.494Z,79.60
2022-08-22T11:21:58.363Z,78.90
2022-08-22T11:24:17.354Z,78.30
2022-08-22T11:27:01.066Z,77.70
2022-08-22T11:29:35.104Z,77.10
2022-08-22T11:31:51.952Z,76.40
2022-08-22T11:34:01.490Z,76.00
2022-08-22T11:36:13.086Z,77.30
2022-08-22T11:38:36.197Z,77.70
2022-08-22T11:40:47.967Z,77.70
2022-08-22T11:43:00.504Z,77.50
2022-08-22T11:45:09.649Z,77.00
2022-08-22T11:47:26.693Z,76.50
2022-08-22T11:50:03.145Z,75.40
2022-08-22T11:52:26.491Z,74.90
2022-08-22T11:54:51.755Z,74.10
2022-08-22T11:57:06.834Z,73.90
2022-08-22T11:59:24.687Z,73.80
2022-08-22T12:01:37.427Z,73.90
2022-08-22T12:03:59.580Z,73.90
2022-08-22T12:06:11.453Z,74.00
2022-08-22T12:08:24.401Z,73.60
2022-08-22T12:10:35.705Z,73.00
2022-08-22T12:12:55.535Z,72.90
2022-08-22T12:15:11.087Z,72.30
2022-08-22T12:17:55.500Z,71.90
2022-08-22T12:20:16.487Z,71.90
2022-08-22T12:22:59.079Z,72.10
2022-08-22T12:25:17.515Z,71.80
2022-08-22T12:27:48.154Z,71.40
2022-08-22T12:30:14.955Z,71.20
2022-08-22T12:33:01.542Z,70.80
2022-08-22T12:35:29.678Z,70.20
2022-08-22T12:37:54.274Z,70.50
2022-08-22T12:40:26.346Z,70.80
2022-08-22T12:43:04.979Z,70.90
2022-08-22T12:45:25.584Z,70.50
2022-08-22T12:47:45.256Z,71.10
2022-08-22T12:50:08.719Z,71.20
2022-08-22T12:52:29.780Z,69.70
2022-08-22T12:54:58.617Z,69.70
2022-08-22T12:57:23.865Z,69.80
2022-08-22T12:59:34.994Z,69.80
2022-08-22T13:01:45.204Z,69.80
2022-08-22T13:03:57.105Z,70.10
2022-08-22T13:06:07.668Z,69.70
2022-08-22T13:08:26.511Z,69.10
2022-08-22T13:10:42.756Z,69.40
2022-08-22T13:12:57.931Z,70.00
2022-08-22T13:15:15.707Z,69.70
2022-08-22T13:17:26.872Z,70.70
2022-08-22T13:19:35.411Z,71.00
2022-08-22T13:21:46.277Z,71.10
2022-08-22T13:23:55.500Z,71.50
2022-08-22T13:26:08.060Z,71.70
2022-08-22T13:28:14.526Z,71.60
2022-08-22T13:30:24.385Z,72.10
2022-08-22T13:32:54.686Z,71.60
2022-08-22T13:35:01.351Z,71.80
2022-08-22T13:37:13.430Z,71.70
2022-08-22T13:39:30.125Z,71.80
2022-08-22T13:41:44.312Z,72.30
2022-08-22T13:44:11.771Z,72.50
2022-08-22T13:46:26.274Z,72.10
2022-08-22T13:48:49.468Z,71.40
2022-08-22T13:51:08.157Z,72.10
2022-08-22T13:53:27.206Z,72.90
2022-08-22T13:55:38.404Z,74.00
2022-08-22T13:57:51.839Z,75.50
2022-08-22T14:00:06.265Z,77.30
2022-08-22T14:02:21.969Z,78.40
2022-08-22T14:04:34.768Z,79.10
2022-08-22T14:06:51.053Z,79.80
2022-08-22T14:08:58.576Z,81.10
2022-08-22T14:11:11.827Z,82.00
2022-08-22T14:13:41.965Z,82.70
2022-08-22T14:15:47.164Z,83.40
2022-08-22T14:17:57.591Z,83.70
2022-08-22T14:20:13.033Z,84.00
2022-08-22T14:22:31.877Z,83.70
2022-08-22T14:24:45.979Z,84.20
2022-08-22T14:26:57.921Z,83.90
2022-08-22T14:29:11.197Z,83.90
2022-08-22T14:31:25.909Z,83.40
2022-08-22T14:33:39.738Z,83.90
2022-08-22T14:35:53.922Z,84.30
2022-08-22T14:38:17.566Z,84.50
2022-08-22T14:40:26.421Z,84.30
2022-08-22T14:42:44.323Z,84.80
2022-08-22T14:45:07.051Z,84.50
2022-08-22T14:47:54.687Z,85.00
2022-08-22T14:49:55.628Z,84.70
2022-08-22T14:52:28.817Z,83.90
2022-08-22T14:54:35.278Z,84.30
2022-08-22T14:56:41.710Z,84.20
2022-08-22T14:58:53.706Z,84.40
2022-08-22T15:00:59.228Z,84.60
2022-08-22T15:03:22.590Z,85.30
2022-08-22T15:05:29.048Z,84.50
2022-08-22T15:07:54.973Z,84.60
2022-08-22T15:10:11.784Z,85.00
2022-08-22T15:12:26.823Z,85.50
2022-08-22T15:14:52.447Z,85.40
2022-08-22T15:16:59.274Z,85.60
2022-08-22T15:19:20.885Z,85.50
2022-08-22T15:21:30.439Z,85.50
2022-08-22T15:23:45.334Z,86.40
2022-08-22T15:26:00.850Z,87.40
2022-08-22T15:28:14.268Z,86.50
2022-08-22T15:30:44.436Z,86.90
2022-08-22T15:32:50.303Z,87.40
2022-08-22T15:35:04.886Z,87.30
2022-08-22T15:37:36.407Z,87.60
2022-08-22T15:40:03.017Z,88.00
2022-08-22T15:42:12.928Z,87.90
2022-08-22T15:44:33.222Z,88.10
2022-08-22T15:46:42.078Z,87.70
2022-08-22T15:48:57.337Z,88.10
2022-08-22T15:51:09.462Z,88.80
2022-08-22T15:53:22.063Z,89.40
2022-08-22T15:55:34.546Z,87.90
2022-08-22T15:57:51.642Z,85.40
2022-08-22T16:00:28.105Z,86.00
2022-08-22T16:02:46.489Z,85.90
2022-08-22T16:05:44.589Z,85.80
2022-08-22T16:07:52.804Z,85.90
2022-08-22T16:10:01.708Z,85.90
2022-08-22T16:12:12.501Z,86.30
2022-08-22T16:14:24.692Z,86.50
2022-08-22T16:17:12.532Z,86.70
2022-08-22T16:19:23.094Z,86.20
2022-08-22T16:22:25.780Z,85.70
2022-08-22T16:25:10.371Z,86.20
2022-08-22T16:27:26.261Z,86.10
2022-08-22T16:29:41.848Z,86.50
2022-08-22T16:32:02.138Z,87.10
2022-08-22T16:34:26.111Z,86.90
2022-08-22T16:36:46.746Z,87.20
2022-08-22T16:38:54.022Z,88.30
2022-08-22T16:41:00.761Z,89.00
2022-08-22T16:43:16.240Z,89.10
2022-08-22T16:45:32.270Z,89.20
2022-08-22T16:47:42.939Z,89.80
2022-08-22T16:50:06.112Z,90.10
2022-08-22T16:53:02.359Z,90.50
2022-08-22T16:55:27.586Z,90.60
2022-08-22T16:58:05.122Z,90.70
2022-08-22T17:00:29.878Z,91.10
2022-08-22T17:03:01.016Z,91.10
2022-08-22T17:05:23.256Z,91.00
2022-08-22T17:07:37.315Z,91.30
2022-08-22T17:10:07.841Z,91.50
2022-08-22T17:12:29.657Z,91.60
2022-08-22T17:14:52.119Z,91.70
2022-08-22T17:17:06.767Z,91.80
2022-08-22T17:19:30.420Z,92.10
2022-08-22T17:21:51.759Z,92.20
2022-08-22T17:24:07.508Z,92.20
2022-08-22T17:26:21.358Z,92.40
2022-08-22T17:28:37.346Z,92.50
2022-08-22T17:30:54.607Z,92.40
2022-08-22T17:33:14.216Z,92.50
2022-08-22T17:35:46.068Z,92.50
2022-08-22T17:38:03.793Z,92.60
2022-08-22T17:40:29.829Z,92.70
2022-08-22T17:42:47.924Z,92.60
2022-08-22T17:45:00.999Z,92.60
2022-08-22T17:47:16.618Z,92.50
2022-08-22T17:49:36.959Z,92.70
2022-08-22T17:51:49.557Z,92.70
2022-08-22T17:53:58.560Z,92.60
2022-08-22T17:56:14.472Z,92.60
2022-08-22T17:58:37.969Z,92.60
2022-08-22T18:00:52.586Z,92.60
2022-08-22T18:03:02.959Z,92.70
2022-08-22T18:05:15.475Z,92.90
2022-08-22T18:07:50.754Z,92.90
2022-08-22T18:10:00.545Z,93.00
2022-08-22T18:12:16.989Z,93.00
2022-08-22T18:14:30.518Z,93.20
2022-08-22T18:16:43.512Z,93.00
2022-08-22T18:18:55.447Z,93.30
2022-08-22T18:21:08.127Z,92.20
2022-08-22T18:23:28.366Z,94.20
2022-08-22T18:25:55.865Z,93.90
2022-08-22T18:28:06.082Z,94.20
2022-08-22T18:30:22.858Z,94.50
2022-08-22T18:32:32.802Z,93.70
2022-08-22T18:34:44.017Z,93.30
2022-08-22T18:36:56.377Z,94.10
2022-08-22T18:39:06.470Z,93.90
2022-08-22T18:41:21.344Z,94.10
2022-08-22T18:43:36.466Z,94.50
2022-08-22T18:46:03.541Z,94.50
2022-08-22T18:48:10.693Z,94.20
2022-08-22T18:50:33.042Z,94.70
2022-08-22T18:52:39.910Z,94.90
2022-08-22T18:55:07.799Z,95.00
2022-08-22T18:57:34.847Z,95.20
2022-08-22T19:00:01.877Z,95.20
2022-08-22T19:02:34.167Z,94.90
2022-08-22T19:05:07.267Z,95.50
2022-08-22T19:07:26.589Z,95.80
2022-08-22T19:09:46.725Z,96.30
2022-08-22T19:12:04.080Z,96.50
2022-08-22T19:14:27.842Z,96.70
2022-08-22T19:17:15.568Z,97.00
2022-08-22T19:19:24.328Z,97.10
2022-08-22T19:21:48.419Z,97.30
2022-08-22T19:23:56.043Z,97.40
2022-08-22T19:26:27.969Z,97.60
2022-08-22T19:28:38.555Z,97.80
2022-08-22T19:30:46.094Z,98.00
2022-08-22T19:33:06.404Z,98.00
2022-08-22T19:35:20.939Z,98.10
2022-08-22T19:37:33.580Z,98.30
2022-08-22T19:39:55.450Z,98.30
2022-08-22T19:42:00.050Z,98.20
2022-08-22T19:44:05.250Z,98.40
2022-08-22T19:46:12.842Z,98.20
2022-08-22T19:48:23.735Z,98.70
2022-08-22T19:50:35.336Z,98.80
2022-08-22T19:53:05.344Z,99.00
2022-08-22T19:55:18.467Z,98.80
2022-08-22T19:57:30.648Z,98.70
2022-08-22T19:59:51.390Z,98.10
2022-08-22T20:02:03.645Z,98.40
2022-08-22T20:04:20.780Z,98.50
2022-08-22T20:06:47.788Z,98.50
2022-08-22T20:09:04.111Z,98.70
2022-08-22T20:11:23.417Z,99.10
2022-08-22T20:13:31.656Z,99.40
2022-08-22T20:16:05.479Z,99.40
2022-08-22T20:18:47.189Z,99.20
2022-08-22T20:20:58.548Z,98.80
2022-08-22T20:23:12.362Z,98.30
2022-08-22T20:25:42.756Z,98.60
2022-08-22T20:27:51.425Z,98.90
2022-08-22T20:30:03.037Z,98.90
2022-08-22T20:32:08.840Z,98.70
2022-08-22T20:34:19.342Z,98.60
2022-08-22T20:36:28.409Z,98.30
2022-08-22T20:38:38.360Z,98.10
2022-08-22T20:40:56.737Z,98.20
2022-08-22T20:43:10.407Z,98.10
2022-08-22T20:45:19.811Z,97.00
2022-08-22T20:47:32.321Z,97.10
2022-08-22T20:49:48.359Z,97.40
2022-08-22T20:51:56.007Z,96.80
2022-08-22T20:54:02.668Z,96.40
2022-08-22T20:56:14.797Z,96.30
2022-08-22T20:58:25.203Z,96.60
2022-08-22T21:00:34.543Z,96.70
2022-08-22T21:02:44.772Z,96.90
2022-08-22T21:04:53.538Z,97.20
2022-08-22T21:07:01.422Z,97.50
2022-08-22T21:09:32.098Z,97.20
2022-08-22T21:11:42.290Z,97.90
2022-08-22T21:13:48.710Z,95.70
2022-08-22T21:15:55.542Z,97.10
2022-08-22T21:17:59.931Z,97.50
2022-08-22T21:20:22.303Z,94.90
2022-08-22T21:22:29.014Z,94.80
2022-08-22T21:24:33.447Z,96.90
2022-08-22T21:26:41.120Z,94.30
2022-08-22T21:28:58.580Z,94.40
2022-08-22T21:31:12.155Z,96.40
2022-08-22T21:33:23.685Z,96.70
2022-08-22T21:35:31.799Z,97.10
2022-08-22T21:37:40.111Z,97.60
2022-08-22T21:39:47.157Z,96.60
2022-08-22T21:41:53.568Z,94.90
2022-08-22T21:44:19.728Z,97.00
2022-08-22T21:46:28.878Z,96.80
2022-08-22T21:48:35.854Z,96.30
2022-08-22T21:50:41.445Z,96.90
2022-08-22T21:53:02.090Z,97.30
2022-08-22T21:55:26.822Z,97.50
2022-08-22T21:57:36.586Z,98.00
2022-08-22T21:59:51.091Z,96.70
2022-08-22T22:02:17.524Z,97.00
2022-08-22T22:04:21.836Z,95.90
2022-08-22T22:06:27.255Z,93.20
2022-08-22T22:08:33.003Z,95.90
2022-08-22T22:10:38.698Z,95.20
2022-08-22T22:12:44.366Z,91.50
2022-08-22T22:14:50.850Z,92.40
2022-08-22T22:16:55.240Z,94.90
2022-08-22T22:18:59.470Z,92.60
2022-08-22T22:21:03.941Z,91.50
2022-08-22T22:23:08.237Z,94.30
2022-08-22T22:25:41.067Z,90.90
2022-08-22T22:27:37.296Z,93.60
2022-08-22T22:29:42.304Z,94.20
2022-08-22T22:31:47.991Z,93.70
2022-08-22T22:33:52.330Z,95.80
2022-08-22T22:36:04.103Z,96.40
2022-08-22T22:38:09.253Z,97.20
2022-08-22T22:40:14.808Z,97.90
2022-08-22T22:42:19.126Z,99.00
2022-08-22T22:44:25.716Z,99.40
2022-08-22T22:46:30.449Z,99.70
2022-08-22T22:48:36.113Z,99.60
2022-08-22T22:50:43.328Z,99.70
2022-08-22T22:52:47.622Z,99.90
2022-08-22T22:54:54.566Z,99.30
2022-08-22T22:57:02.820Z,99.90
2022-08-22T22:59:13.140Z,99.90
2022-08-22T23:01:25.264Z,99.70
2022-08-22T23:03:29.535Z,98.00
2022-08-22T23:05:36.012Z,96.50
2022-08-22T23:07:41.480Z,98.30
2022-08-22T23:09:45.978Z,95.30
2022-08-22T23:11:50.180Z,97.20
2022-08-22T23:13:54.752Z,95.10
2022-08-22T23:16:00.009Z,93.40
2022-08-22T23:18:05.888Z,96.00
2022-08-22T23:20:10.615Z,96.30
2022-08-22T23:22:16.243Z,93.40
2022-08-22T23:24:20.481Z,95.30
2022-08-22T23:26:24.973Z,95.80
2022-08-22T23:28:29.181Z,96.80
2022-08-22T23:30:33.404Z,97.40
2022-08-22T23:32:37.990Z,97.80
2022-08-22T23:34:46.126Z,98.50
2022-08-22T23:36:52.532Z,98.80
2022-08-22T23:38:58.410Z,99.10
2022-08-22T23:41:09.670Z,98.50
2022-08-22T23:43:14.262Z,99.70
2022-08-22T23:45:18.913Z,99.10
2022-08-22T23:47:23.299Z,97.00
2022-08-22T23:49:28.199Z,98.20
2022-08-22T23:51:32.593Z,96.70
2022-08-22T23:53:36.999Z,97.10
2022-08-22T23:55:43.025Z,94.70
2022-08-22T23:57:47.310Z,97.00
2022-08-22T23:59:57.599Z,96.10
